sensor_id;sensor_type;location;lat;lon;timestamp;P1;durP1;ratioP1;P2;durP2;ratioP2
30681;SDS011;17439;48.092;11.842;2023-02-22T00:02:22;7.38;;;1.52;;
30681;SDS011;17439;48.092;11.842;2023-02-22T00:04:49;3.88;;;1.60;;
30681;SDS011;17439;48.092;11.842;2023-02-22T00:07:15;5.95;;;2.17;;
30681;SDS011;17439;48.092;11.842;2023-02-22T00:09:42;5.70;;;1.35;;
30681;SDS011;17439;48.092;11.842;2023-02-22T00:12:08;3.33;;;1.52;;
30681;SDS011;17439;48.092;11.842;2023-02-22T00:14:35;3.20;;;1.08;;
30681;SDS011;17439;48.092;11.842;2023-02-22T00:17:02;6.00;;;1.60;;
30681;SDS011;17439;48.092;11.842;2023-02-22T00:19:28;2.45;;;1.17;;
30681;SDS011;17439;48.092;11.842;2023-02-22T00:21:55;5.60;;;1.35;;
30681;SDS011;17439;48.092;11.842;2023-02-22T00:24:21;4.32;;;1.20;;
30681;SDS011;17439;48.092;11.842;2023-02-22T00:26:52;2.17;;;1.48;;
30681;SDS011;17439;48.092;11.842;2023-02-22T00:29:20;2.47;;;1.45;;
30681;SDS011;17439;48.092;11.842;2023-02-22T00:31:47;2.78;;;1.45;;
30681;SDS011;17439;48.092;11.842;2023-02-22T00:34:14;3.00;;;1.10;;
30681;SDS011;17439;48.092;11.842;2023-02-22T00:36:45;5.25;;;1.33;;
30681;SDS011;17439;48.092;11.842;2023-02-22T00:39:13;3.17;;;1.30;;
30681;SDS011;17439;48.092;11.842;2023-02-22T00:41:39;2.13;;;1.15;;
30681;SDS011;17439;48.092;11.842;2023-02-22T00:44:06;2.78;;;1.40;;
30681;SDS011;17439;48.092;11.842;2023-02-22T00:46:32;2.80;;;1.20;;
30681;SDS011;17439;48.092;11.842;2023-02-22T00:48:59;4.28;;;1.45;;
30681;SDS011;17439;48.092;11.842;2023-02-22T00:51:26;5.20;;;1.55;;
30681;SDS011;17439;48.092;11.842;2023-02-22T00:53:52;2.40;;;1.52;;
30681;SDS011;17439;48.092;11.842;2023-02-22T00:56:19;4.78;;;1.70;;
30681;SDS011;17439;48.092;11.842;2023-02-22T00:58:46;3.97;;;1.77;;
30681;SDS011;17439;48.092;11.842;2023-02-22T01:01:12;4.70;;;1.73;;
30681;SDS011;17439;48.092;11.842;2023-02-22T01:03:39;4.47;;;1.75;;
30681;SDS011;17439;48.092;11.842;2023-02-22T01:06:06;4.07;;;1.73;;
30681;SDS011;17439;48.092;11.842;2023-02-22T01:08:33;4.53;;;1.73;;
30681;SDS011;17439;48.092;11.842;2023-02-22T01:10:59;3.28;;;2.47;;
30681;SDS011;17439;48.092;11.842;2023-02-22T01:13:26;5.43;;;2.10;;
30681;SDS011;17439;48.092;11.842;2023-02-22T01:15:53;2.70;;;1.42;;
30681;SDS011;17439;48.092;11.842;2023-02-22T01:18:19;4.55;;;1.85;;
30681;SDS011;17439;48.092;11.842;2023-02-22T01:20:46;3.65;;;1.75;;
30681;SDS011;17439;48.092;11.842;2023-02-22T01:23:14;4.32;;;1.73;;
30681;SDS011;17439;48.092;11.842;2023-02-22T01:25:40;2.95;;;1.52;;
30681;SDS011;17439;48.092;11.842;2023-02-22T01:28:07;3.22;;;1.40;;
30681;SDS011;17439;48.092;11.842;2023-02-22T01:30:34;4.05;;;2.20;;
30681;SDS011;17439;48.092;11.842;2023-02-22T01:33:02;4.25;;;1.58;;
30681;SDS011;17439;48.092;11.842;2023-02-22T01:35:33;4.10;;;1.90;;
30681;SDS011;17439;48.092;11.842;2023-02-22T01:38:03;3.35;;;1.55;;
30681;SDS011;17439;48.092;11.842;2023-02-22T01:40:31;4.35;;;1.40;;
30681;SDS011;17439;48.092;11.842;2023-02-22T01:43:03;6.57;;;1.63;;
30681;SDS011;17439;48.092;11.842;2023-02-22T01:45:47;4.60;;;1.98;;
30681;SDS011;17439;48.092;11.842;2023-02-22T01:51:11;5.15;;;2.03;;
30681;SDS011;17439;48.092;11.842;2023-02-22T01:54:03;8.77;;;2.35;;
30681;SDS011;17439;48.092;11.842;2023-02-22T01:56:32;3.95;;;1.70;;
30681;SDS011;17439;48.092;11.842;2023-02-22T01:59:04;1.85;;;1.33;;
30681;SDS011;17439;48.092;11.842;2023-02-22T02:01:34;3.25;;;1.65;;
30681;SDS011;17439;48.092;11.842;2023-02-22T02:04:03;6.03;;;2.50;;
30681;SDS011;17439;48.092;11.842;2023-02-22T02:06:32;7.47;;;1.70;;
30681;SDS011;17439;48.092;11.842;2023-02-22T02:09:16;3.65;;;2.10;;
30681;SDS011;17439;48.092;11.842;2023-02-22T02:11:48;3.05;;;1.42;;
30681;SDS011;17439;48.092;11.842;2023-02-22T02:14:15;6.25;;;1.90;;
30681;SDS011;17439;48.092;11.842;2023-02-22T02:16:43;5.57;;;2.57;;
30681;SDS011;17439;48.092;11.842;2023-02-22T02:19:19;3.85;;;2.03;;
30681;SDS011;17439;48.092;11.842;2023-02-22T02:28:00;5.13;;;2.03;;
30681;SDS011;17439;48.092;11.842;2023-02-22T02:35:55;5.43;;;2.08;;
30681;SDS011;17439;48.092;11.842;2023-02-22T02:41:52;5.50;;;2.08;;
30681;SDS011;17439;48.092;11.842;2023-02-22T02:47:01;4.45;;;1.90;;
30681;SDS011;17439;48.092;11.842;2023-02-22T02:49:33;4.10;;;2.10;;
30681;SDS011;17439;48.092;11.842;2023-02-22T02:52:05;6.13;;;1.83;;
30681;SDS011;17439;48.092;11.842;2023-02-22T02:54:35;4.18;;;1.83;;
30681;SDS011;17439;48.092;11.842;2023-02-22T02:57:03;4.63;;;1.83;;
30681;SDS011;17439;48.092;11.842;2023-02-22T02:59:34;4.00;;;1.52;;
30681;SDS011;17439;48.092;11.842;2023-02-22T03:04:50;4.00;;;1.98;;
30681;SDS011;17439;48.092;11.842;2023-02-22T03:10:27;8.00;;;2.20;;
30681;SDS011;17439;48.092;11.842;2023-02-22T03:18:49;3.67;;;1.95;;
30681;SDS011;17439;48.092;11.842;2023-02-22T03:21:23;6.22;;;1.63;;
30681;SDS011;17439;48.092;11.842;2023-02-22T03:26:29;4.82;;;2.22;;
30681;SDS011;17439;48.092;11.842;2023-02-22T03:29:02;5.32;;;2.13;;
30681;SDS011;17439;48.092;11.842;2023-02-22T03:31:34;5.28;;;2.08;;
30681;SDS011;17439;48.092;11.842;2023-02-22T03:34:12;6.20;;;2.30;;
30681;SDS011;17439;48.092;11.842;2023-02-22T03:37:20;5.15;;;1.65;;
30681;SDS011;17439;48.092;11.842;2023-02-22T03:39:44;7.95;;;3.05;;
30681;SDS011;17439;48.092;11.842;2023-02-22T03:42:16;6.75;;;1.92;;
30681;SDS011;17439;48.092;11.842;2023-02-22T03:44:48;6.00;;;2.38;;
30681;SDS011;17439;48.092;11.842;2023-02-22T03:47:21;7.45;;;2.13;;
30681;SDS011;17439;48.092;11.842;2023-02-22T03:50:04;3.22;;;1.58;;
30681;SDS011;17439;48.092;11.842;2023-02-22T03:52:41;4.15;;;2.28;;
30681;SDS011;17439;48.092;11.842;2023-02-22T03:55:15;3.88;;;1.60;;
30681;SDS011;17439;48.092;11.842;2023-02-22T03:57:44;3.47;;;1.60;;
30681;SDS011;17439;48.092;11.842;2023-02-22T04:00:17;3.17;;;1.73;;
30681;SDS011;17439;48.092;11.842;2023-02-22T04:02:46;4.13;;;1.73;;
30681;SDS011;17439;48.092;11.842;2023-02-22T04:05:17;3.67;;;1.65;;
30681;SDS011;17439;48.092;11.842;2023-02-22T04:07:45;4.53;;;1.92;;
30681;SDS011;17439;48.092;11.842;2023-02-22T04:10:14;5.05;;;2.13;;
30681;SDS011;17439;48.092;11.842;2023-02-22T04:12:42;4.78;;;1.88;;
30681;SDS011;17439;48.092;11.842;2023-02-22T04:15:10;4.50;;;2.38;;
30681;SDS011;17439;48.092;11.842;2023-02-22T04:17:39;5.18;;;2.78;;
30681;SDS011;17439;48.092;11.842;2023-02-22T04:20:08;3.90;;;1.75;;
30681;SDS011;17439;48.092;11.842;2023-02-22T04:22:56;2.55;;;1.63;;
30681;SDS011;17439;48.092;11.842;2023-02-22T04:25:23;3.25;;;1.83;;
30681;SDS011;17439;48.092;11.842;2023-02-22T04:27:50;3.25;;;1.90;;
30681;SDS011;17439;48.092;11.842;2023-02-22T04:30:21;7.30;;;2.38;;
30681;SDS011;17439;48.092;11.842;2023-02-22T04:32:48;10.93;;;2.20;;
30681;SDS011;17439;48.092;11.842;2023-02-22T04:35:19;6.32;;;2.20;;
30681;SDS011;17439;48.092;11.842;2023-02-22T04:37:46;4.97;;;2.22;;
30681;SDS011;17439;48.092;11.842;2023-02-22T04:40:13;5.80;;;1.95;;
30681;SDS011;17439;48.092;11.842;2023-02-22T04:42:41;4.32;;;2.22;;
30681;SDS011;17439;48.092;11.842;2023-02-22T04:45:08;4.97;;;2.45;;
30681;SDS011;17439;48.092;11.842;2023-02-22T04:47:36;3.40;;;1.65;;
30681;SDS011;17439;48.092;11.842;2023-02-22T04:50:05;3.00;;;2.10;;
30681;SDS011;17439;48.092;11.842;2023-02-22T04:52:34;6.40;;;2.67;;
30681;SDS011;17439;48.092;11.842;2023-02-22T04:55:01;6.00;;;1.77;;
30681;SDS011;17439;48.092;11.842;2023-02-22T04:57:28;10.30;;;1.75;;
30681;SDS011;17439;48.092;11.842;2023-02-22T04:59:54;4.13;;;2.10;;
30681;SDS011;17439;48.092;11.842;2023-02-22T05:02:22;3.92;;;2.00;;
30681;SDS011;17439;48.092;11.842;2023-02-22T05:04:49;11.63;;;2.67;;
30681;SDS011;17439;48.092;11.842;2023-02-22T05:07:16;5.07;;;2.05;;
30681;SDS011;17439;48.092;11.842;2023-02-22T05:09:43;5.00;;;2.25;;
30681;SDS011;17439;48.092;11.842;2023-02-22T05:12:09;6.55;;;1.60;;
30681;SDS011;17439;48.092;11.842;2023-02-22T05:14:36;4.28;;;2.13;;
30681;SDS011;17439;48.092;11.842;2023-02-22T05:17:03;6.30;;;2.22;;
30681;SDS011;17439;48.092;11.842;2023-02-22T05:19:30;5.25;;;1.83;;
30681;SDS011;17439;48.092;11.842;2023-02-22T05:21:56;3.38;;;2.08;;
30681;SDS011;17439;48.092;11.842;2023-02-22T05:24:23;4.25;;;2.13;;
30681;SDS011;17439;48.092;11.842;2023-02-22T05:26:49;5.80;;;2.55;;
30681;SDS011;17439;48.092;11.842;2023-02-22T05:29:16;3.03;;;1.90;;
30681;SDS011;17439;48.092;11.842;2023-02-22T05:31:43;4.90;;;2.15;;
30681;SDS011;17439;48.092;11.842;2023-02-22T05:34:09;6.65;;;2.20;;
30681;SDS011;17439;48.092;11.842;2023-02-22T05:36:36;4.55;;;2.13;;
30681;SDS011;17439;48.092;11.842;2023-02-22T05:39:03;3.35;;;1.75;;
30681;SDS011;17439;48.092;11.842;2023-02-22T05:41:29;3.88;;;2.08;;
30681;SDS011;17439;48.092;11.842;2023-02-22T05:43:56;4.22;;;1.75;;
30681;SDS011;17439;48.092;11.842;2023-02-22T05:46:23;3.22;;;1.92;;
30681;SDS011;17439;48.092;11.842;2023-02-22T05:48:49;6.72;;;2.22;;
30681;SDS011;17439;48.092;11.842;2023-02-22T05:51:16;4.75;;;2.10;;
30681;SDS011;17439;48.092;11.842;2023-02-22T05:53:43;5.18;;;2.10;;
30681;SDS011;17439;48.092;11.842;2023-02-22T05:56:10;6.65;;;2.50;;
30681;SDS011;17439;48.092;11.842;2023-02-22T05:58:36;5.35;;;2.15;;
30681;SDS011;17439;48.092;11.842;2023-02-22T06:01:03;4.50;;;1.83;;
30681;SDS011;17439;48.092;11.842;2023-02-22T06:03:30;11.57;;;2.35;;
30681;SDS011;17439;48.092;11.842;2023-02-22T06:05:56;7.60;;;2.15;;
30681;SDS011;17439;48.092;11.842;2023-02-22T06:08:23;5.95;;;2.42;;
30681;SDS011;17439;48.092;11.842;2023-02-22T06:10:49;2.83;;;1.83;;
30681;SDS011;17439;48.092;11.842;2023-02-22T06:13:16;12.43;;;2.45;;
30681;SDS011;17439;48.092;11.842;2023-02-22T06:15:43;7.72;;;2.78;;
30681;SDS011;17439;48.092;11.842;2023-02-22T06:18:09;9.07;;;3.42;;
30681;SDS011;17439;48.092;11.842;2023-02-22T06:20:36;9.38;;;3.17;;
30681;SDS011;17439;48.092;11.842;2023-02-22T06:23:02;7.45;;;3.35;;
30681;SDS011;17439;48.092;11.842;2023-02-22T06:25:30;10.73;;;2.92;;
30681;SDS011;17439;48.092;11.842;2023-02-22T06:27:57;7.90;;;3.22;;
30681;SDS011;17439;48.092;11.842;2023-02-22T06:30:24;7.60;;;2.60;;
30681;SDS011;17439;48.092;11.842;2023-02-22T06:32:51;7.30;;;3.20;;
30681;SDS011;17439;48.092;11.842;2023-02-22T06:35:18;8.85;;;3.53;;
30681;SDS011;17439;48.092;11.842;2023-02-22T06:37:46;6.40;;;3.20;;
30681;SDS011;17439;48.092;11.842;2023-02-22T06:40:13;8.05;;;3.70;;
30681;SDS011;17439;48.092;11.842;2023-02-22T06:42:40;7.50;;;3.07;;
30681;SDS011;17439;48.092;11.842;2023-02-22T06:45:07;5.55;;;2.80;;
30681;SDS011;17439;48.092;11.842;2023-02-22T06:47:40;6.95;;;2.50;;
30681;SDS011;17439;48.092;11.842;2023-02-22T06:50:09;7.95;;;2.85;;
30681;SDS011;17439;48.092;11.842;2023-02-22T06:52:44;6.20;;;2.50;;
30681;SDS011;17439;48.092;11.842;2023-02-22T06:55:10;5.03;;;2.35;;
30681;SDS011;17439;48.092;11.842;2023-02-22T06:57:37;7.18;;;2.63;;
30681;SDS011;17439;48.092;11.842;2023-02-22T07:00:04;6.60;;;3.20;;
30681;SDS011;17439;48.092;11.842;2023-02-22T07:02:31;6.70;;;2.40;;
30681;SDS011;17439;48.092;11.842;2023-02-22T07:04:57;3.72;;;2.38;;
30681;SDS011;17439;48.092;11.842;2023-02-22T07:07:24;4.13;;;2.03;;
30681;SDS011;17439;48.092;11.842;2023-02-22T07:09:51;8.80;;;2.38;;
30681;SDS011;17439;48.092;11.842;2023-02-22T07:12:18;5.28;;;1.83;;
30681;SDS011;17439;48.092;11.842;2023-02-22T07:14:44;4.28;;;2.10;;
30681;SDS011;17439;48.092;11.842;2023-02-22T07:17:11;7.10;;;2.10;;
30681;SDS011;17439;48.092;11.842;2023-02-22T07:19:37;4.47;;;2.15;;
30681;SDS011;17439;48.092;11.842;2023-02-22T07:22:04;5.38;;;1.60;;
30681;SDS011;17439;48.092;11.842;2023-02-22T07:24:30;4.45;;;1.67;;
30681;SDS011;17439;48.092;11.842;2023-02-22T07:26:57;3.83;;;1.55;;
30681;SDS011;17439;48.092;11.842;2023-02-22T07:29:26;2.88;;;1.70;;
30681;SDS011;17439;48.092;11.842;2023-02-22T07:31:53;4.20;;;2.20;;
30681;SDS011;17439;48.092;11.842;2023-02-22T07:34:19;4.13;;;2.22;;
30681;SDS011;17439;48.092;11.842;2023-02-22T07:36:46;8.13;;;2.47;;
30681;SDS011;17439;48.092;11.842;2023-02-22T07:39:13;4.72;;;2.00;;
30681;SDS011;17439;48.092;11.842;2023-02-22T07:41:39;4.80;;;2.30;;
30681;SDS011;17439;48.092;11.842;2023-02-22T07:44:20;6.55;;;2.47;;
30681;SDS011;17439;48.092;11.842;2023-02-22T07:46:47;4.63;;;1.63;;
30681;SDS011;17439;48.092;11.842;2023-02-22T07:49:13;5.60;;;1.55;;
30681;SDS011;17439;48.092;11.842;2023-02-22T07:51:40;3.92;;;1.42;;
30681;SDS011;17439;48.092;11.842;2023-02-22T07:54:07;9.88;;;1.73;;
30681;SDS011;17439;48.092;11.842;2023-02-22T07:56:33;4.32;;;1.65;;
30681;SDS011;17439;48.092;11.842;2023-02-22T07:59:00;3.80;;;1.98;;
30681;SDS011;17439;48.092;11.842;2023-02-22T08:01:26;5.05;;;1.70;;
30681;SDS011;17439;48.092;11.842;2023-02-22T08:03:53;7.47;;;1.20;;
30681;SDS011;17439;48.092;11.842;2023-02-22T08:06:20;7.28;;;1.55;;
30681;SDS011;17439;48.092;11.842;2023-02-22T08:08:46;4.35;;;1.70;;
30681;SDS011;17439;48.092;11.842;2023-02-22T08:11:13;3.83;;;1.75;;
30681;SDS011;17439;48.092;11.842;2023-02-22T08:13:40;4.90;;;1.80;;
30681;SDS011;17439;48.092;11.842;2023-02-22T08:16:06;4.50;;;1.67;;
30681;SDS011;17439;48.092;11.842;2023-02-22T08:18:33;3.17;;;1.67;;
30681;SDS011;17439;48.092;11.842;2023-02-22T08:21:00;9.52;;;1.40;;
30681;SDS011;17439;48.092;11.842;2023-02-22T08:23:26;4.00;;;1.85;;
30681;SDS011;17439;48.092;11.842;2023-02-22T08:25:53;2.72;;;1.13;;
30681;SDS011;17439;48.092;11.842;2023-02-22T08:28:21;4.63;;;1.60;;
30681;SDS011;17439;48.092;11.842;2023-02-22T08:30:49;2.78;;;1.23;;
30681;SDS011;17439;48.092;11.842;2023-02-22T08:33:16;4.97;;;1.90;;
30681;SDS011;17439;48.092;11.842;2023-02-22T08:35:44;9.47;;;1.50;;
30681;SDS011;17439;48.092;11.842;2023-02-22T08:40:46;3.45;;;1.50;;
30681;SDS011;17439;48.092;11.842;2023-02-22T08:43:13;6.70;;;1.33;;
30681;SDS011;17439;48.092;11.842;2023-02-22T08:45:40;1.67;;;0.90;;
30681;SDS011;17439;48.092;11.842;2023-02-22T08:48:08;3.30;;;1.20;;
30681;SDS011;17439;48.092;11.842;2023-02-22T08:50:34;4.28;;;1.17;;
30681;SDS011;17439;48.092;11.842;2023-02-22T08:53:02;2.97;;;1.40;;
30681;SDS011;17439;48.092;11.842;2023-02-22T08:55:31;3.85;;;1.48;;
30681;SDS011;17439;48.092;11.842;2023-02-22T08:58:00;2.97;;;1.45;;
30681;SDS011;17439;48.092;11.842;2023-02-22T09:00:27;4.13;;;1.38;;
30681;SDS011;17439;48.092;11.842;2023-02-22T09:02:55;2.65;;;1.02;;
30681;SDS011;17439;48.092;11.842;2023-02-22T09:05:22;5.05;;;1.33;;
30681;SDS011;17439;48.092;11.842;2023-02-22T09:07:48;4.00;;;1.20;;
30681;SDS011;17439;48.092;11.842;2023-02-22T09:10:16;8.32;;;2.17;;
30681;SDS011;17439;48.092;11.842;2023-02-22T09:12:45;2.97;;;1.70;;
30681;SDS011;17439;48.092;11.842;2023-02-22T09:15:11;2.95;;;1.10;;
30681;SDS011;17439;48.092;11.842;2023-02-22T09:17:40;5.53;;;1.20;;
30681;SDS011;17439;48.092;11.842;2023-02-22T09:20:08;3.33;;;1.33;;
30681;SDS011;17439;48.092;11.842;2023-02-22T09:22:35;2.22;;;1.23;;
30681;SDS011;17439;48.092;11.842;2023-02-22T09:25:02;11.73;;;1.30;;
30681;SDS011;17439;48.092;11.842;2023-02-22T09:27:42;2.95;;;1.02;;
30681;SDS011;17439;48.092;11.842;2023-02-22T09:30:29;1.67;;;0.95;;
30681;SDS011;17439;48.092;11.842;2023-02-22T09:33:01;3.03;;;1.00;;
30681;SDS011;17439;48.092;11.842;2023-02-22T09:35:30;1.70;;;0.90;;
30681;SDS011;17439;48.092;11.842;2023-02-22T09:37:57;3.80;;;1.20;;
30681;SDS011;17439;48.092;11.842;2023-02-22T09:40:25;2.45;;;1.00;;
30681;SDS011;17439;48.092;11.842;2023-02-22T09:43:03;4.32;;;1.40;;
30681;SDS011;17439;48.092;11.842;2023-02-22T09:48:35;3.15;;;0.80;;
30681;SDS011;17439;48.092;11.842;2023-02-22T09:51:16;7.05;;;1.75;;
30681;SDS011;17439;48.092;11.842;2023-02-22T09:53:45;3.40;;;1.13;;
30681;SDS011;17439;48.092;11.842;2023-02-22T09:56:17;3.60;;;1.30;;
30681;SDS011;17439;48.092;11.842;2023-02-22T09:58:50;5.07;;;1.35;;
30681;SDS011;17439;48.092;11.842;2023-02-22T10:01:40;2.30;;;0.93;;
30681;SDS011;17439;48.092;11.842;2023-02-22T10:04:34;3.55;;;1.08;;
30681;SDS011;17439;48.092;11.842;2023-02-22T10:09:51;3.60;;;1.23;;
30681;SDS011;17439;48.092;11.842;2023-02-22T10:12:30;3.42;;;1.55;;
30681;SDS011;17439;48.092;11.842;2023-02-22T10:20:38;5.15;;;1.33;;
30681;SDS011;17439;48.092;11.842;2023-02-22T10:23:31;2.33;;;1.08;;
30681;SDS011;17439;48.092;11.842;2023-02-22T10:28:38;1.58;;;0.90;;
30681;SDS011;17439;48.092;11.842;2023-02-22T10:31:11;3.05;;;1.45;;
30681;SDS011;17439;48.092;11.842;2023-02-22T10:33:47;2.50;;;1.10;;
30681;SDS011;17439;48.092;11.842;2023-02-22T10:36:22;6.43;;;1.45;;
30681;SDS011;17439;48.092;11.842;2023-02-22T10:38:52;2.25;;;0.90;;
30681;SDS011;17439;48.092;11.842;2023-02-22T10:41:33;1.55;;;0.90;;
30681;SDS011;17439;48.092;11.842;2023-02-22T10:44:04;8.70;;;1.38;;
30681;SDS011;17439;48.092;11.842;2023-02-22T10:46:30;2.88;;;1.13;;
30681;SDS011;17439;48.092;11.842;2023-02-22T10:49:03;4.85;;;2.13;;
30681;SDS011;17439;48.092;11.842;2023-02-22T10:51:31;3.35;;;1.00;;
30681;SDS011;17439;48.092;11.842;2023-02-22T10:54:17;7.85;;;1.52;;
30681;SDS011;17439;48.092;11.842;2023-02-22T10:56:50;2.35;;;1.10;;
30681;SDS011;17439;48.092;11.842;2023-02-22T11:04:47;2.95;;;1.05;;
30681;SDS011;17439;48.092;11.842;2023-02-22T11:10:03;3.13;;;1.08;;
30681;SDS011;17439;48.092;11.842;2023-02-22T11:12:32;4.05;;;1.73;;
30681;SDS011;17439;48.092;11.842;2023-02-22T11:17:42;1.75;;;1.15;;
30681;SDS011;17439;48.092;11.842;2023-02-22T11:20:18;1.40;;;1.05;;
30681;SDS011;17439;48.092;11.842;2023-02-22T11:22:45;8.30;;;1.27;;
30681;SDS011;17439;48.092;11.842;2023-02-22T11:25:17;2.03;;;1.00;;
30681;SDS011;17439;48.092;11.842;2023-02-22T11:27:46;3.20;;;1.13;;
30681;SDS011;17439;48.092;11.842;2023-02-22T11:32:55;2.80;;;1.30;;
30681;SDS011;17439;48.092;11.842;2023-02-22T11:38:03;7.00;;;1.60;;
30681;SDS011;17439;48.092;11.842;2023-02-22T11:40:40;2.70;;;1.27;;
30681;SDS011;17439;48.092;11.842;2023-02-22T11:43:17;1.30;;;0.90;;
30681;SDS011;17439;48.092;11.842;2023-02-22T11:45:54;2.80;;;1.75;;
30681;SDS011;17439;48.092;11.842;2023-02-22T11:48:31;2.58;;;1.38;;
30681;SDS011;17439;48.092;11.842;2023-02-22T11:51:04;3.40;;;1.50;;
30681;SDS011;17439;48.092;11.842;2023-02-22T11:56:44;2.58;;;0.70;;
30681;SDS011;17439;48.092;11.842;2023-02-22T12:02:03;1.83;;;0.82;;
30681;SDS011;17439;48.092;11.842;2023-02-22T12:04:56;4.07;;;2.13;;
30681;SDS011;17439;48.092;11.842;2023-02-22T12:10:54;2.22;;;1.20;;
30681;SDS011;17439;48.092;11.842;2023-02-22T12:19:36;0.82;;;0.60;;
30681;SDS011;17439;48.092;11.842;2023-02-22T12:22:53;1.70;;;0.70;;
30681;SDS011;17439;48.092;11.842;2023-02-22T12:27:38;1.13;;;0.80;;
30681;SDS011;17439;48.092;11.842;2023-02-22T12:30:13;3.47;;;0.65;;
30681;SDS011;17439;48.092;11.842;2023-02-22T12:32:49;0.75;;;0.43;;
30681;SDS011;17439;48.092;11.842;2023-02-22T12:35:22;2.35;;;1.40;;
30681;SDS011;17439;48.092;11.842;2023-02-22T12:43:26;4.65;;;1.23;;
30681;SDS011;17439;48.092;11.842;2023-02-22T12:46:05;3.97;;;0.80;;
30681;SDS011;17439;48.092;11.842;2023-02-22T12:48:41;2.97;;;0.70;;
30681;SDS011;17439;48.092;11.842;2023-02-22T12:59:24;4.70;;;0.85;;
30681;SDS011;17439;48.092;11.842;2023-02-22T13:02:00;1.58;;;0.75;;
30681;SDS011;17439;48.092;11.842;2023-02-22T13:04:37;1.80;;;0.60;;
30681;SDS011;17439;48.092;11.842;2023-02-22T13:07:08;1.50;;;0.63;;
30681;SDS011;17439;48.092;11.842;2023-02-22T13:18:28;2.22;;;1.02;;
30681;SDS011;17439;48.092;11.842;2023-02-22T13:26:44;1.08;;;0.63;;
30681;SDS011;17439;48.092;11.842;2023-02-22T13:29:13;1.13;;;0.60;;
30681;SDS011;17439;48.092;11.842;2023-02-22T13:34:37;1.60;;;0.63;;
30681;SDS011;17439;48.092;11.842;2023-02-22T13:48:14;1.95;;;0.88;;
30681;SDS011;17439;48.092;11.842;2023-02-22T13:51:12;1.48;;;0.75;;
30681;SDS011;17439;48.092;11.842;2023-02-22T13:56:43;1.10;;;0.47;;
30681;SDS011;17439;48.092;11.842;2023-02-22T13:59:22;1.20;;;0.70;;
30681;SDS011;17439;48.092;11.842;2023-02-22T14:01:54;0.90;;;0.63;;
30681;SDS011;17439;48.092;11.842;2023-02-22T14:07:01;0.95;;;0.52;;
30681;SDS011;17439;48.092;11.842;2023-02-22T14:09:50;3.25;;;0.60;;
30681;SDS011;17439;48.092;11.842;2023-02-22T14:18:00;0.85;;;0.65;;
30681;SDS011;17439;48.092;11.842;2023-02-22T14:20:35;1.67;;;0.52;;
30681;SDS011;17439;48.092;11.842;2023-02-22T14:23:24;1.95;;;1.27;;
30681;SDS011;17439;48.092;11.842;2023-02-22T14:26:15;3.17;;;0.70;;
30681;SDS011;17439;48.092;11.842;2023-02-22T14:29:15;2.22;;;1.17;;
30681;SDS011;17439;48.092;11.842;2023-02-22T14:34:10;2.38;;;0.73;;
30681;SDS011;17439;48.092;11.842;2023-02-22T14:36:43;3.40;;;1.02;;
30681;SDS011;17439;48.092;11.842;2023-02-22T14:42:15;2.30;;;1.02;;
30681;SDS011;17439;48.092;11.842;2023-02-22T14:50:07;5.82;;;1.00;;
30681;SDS011;17439;48.092;11.842;2023-02-22T14:52:45;1.85;;;0.70;;
30681;SDS011;17439;48.092;11.842;2023-02-22T15:00:37;2.95;;;1.33;;
30681;SDS011;17439;48.092;11.842;2023-02-22T15:03:15;3.90;;;1.08;;
30681;SDS011;17439;48.092;11.842;2023-02-22T15:05:48;1.40;;;0.70;;
30681;SDS011;17439;48.092;11.842;2023-02-22T15:08:16;6.03;;;0.77;;
30681;SDS011;17439;48.092;11.842;2023-02-22T15:10:44;2.60;;;1.25;;
30681;SDS011;17439;48.092;11.842;2023-02-22T15:13:34;3.42;;;1.20;;
30681;SDS011;17439;48.092;11.842;2023-02-22T15:16:00;2.10;;;1.10;;
30681;SDS011;17439;48.092;11.842;2023-02-22T15:18:32;2.42;;;1.27;;
30681;SDS011;17439;48.092;11.842;2023-02-22T15:21:20;1.13;;;0.80;;
30681;SDS011;17439;48.092;11.842;2023-02-22T15:23:51;2.03;;;0.90;;
30681;SDS011;17439;48.092;11.842;2023-02-22T15:26:36;2.80;;;1.27;;
30681;SDS011;17439;48.092;11.842;2023-02-22T15:31:49;1.45;;;0.70;;
30681;SDS011;17439;48.092;11.842;2023-02-22T15:34:18;3.60;;;0.80;;
30681;SDS011;17439;48.092;11.842;2023-02-22T15:36:48;2.88;;;0.90;;
30681;SDS011;17439;48.092;11.842;2023-02-22T15:42:06;1.10;;;0.77;;
30681;SDS011;17439;48.092;11.842;2023-02-22T15:44:38;0.95;;;0.55;;
30681;SDS011;17439;48.092;11.842;2023-02-22T15:47:10;1.52;;;1.08;;
30681;SDS011;17439;48.092;11.842;2023-02-22T15:49:41;5.90;;;0.80;;
30681;SDS011;17439;48.092;11.842;2023-02-22T15:54:46;4.25;;;1.00;;
30681;SDS011;17439;48.092;11.842;2023-02-22T15:57:16;5.15;;;1.02;;
30681;SDS011;17439;48.092;11.842;2023-02-22T15:59:49;3.72;;;0.80;;
30681;SDS011;17439;48.092;11.842;2023-02-22T16:02:19;2.30;;;1.33;;
30681;SDS011;17439;48.092;11.842;2023-02-22T16:04:59;3.70;;;0.80;;
30681;SDS011;17439;48.092;11.842;2023-02-22T16:07:30;1.33;;;0.57;;
30681;SDS011;17439;48.092;11.842;2023-02-22T16:09:57;1.30;;;0.60;;
30681;SDS011;17439;48.092;11.842;2023-02-22T16:12:26;1.17;;;0.40;;
30681;SDS011;17439;48.092;11.842;2023-02-22T16:14:53;1.52;;;0.60;;
30681;SDS011;17439;48.092;11.842;2023-02-22T16:19:47;13.15;;;0.95;;
30681;SDS011;17439;48.092;11.842;2023-02-22T16:22:30;7.68;;;1.60;;
30681;SDS011;17439;48.092;11.842;2023-02-22T16:25:12;7.40;;;1.52;;
30681;SDS011;17439;48.092;11.842;2023-02-22T16:27:49;5.53;;;1.25;;
30681;SDS011;17439;48.092;11.842;2023-02-22T16:30:28;6.40;;;1.00;;
30681;SDS011;17439;48.092;11.842;2023-02-22T16:32:57;5.15;;;1.35;;
30681;SDS011;17439;48.092;11.842;2023-02-22T16:35:24;7.15;;;1.15;;
30681;SDS011;17439;48.092;11.842;2023-02-22T16:37:58;3.38;;;1.23;;
30681;SDS011;17439;48.092;11.842;2023-02-22T16:40:29;1.92;;;0.90;;
30681;SDS011;17439;48.092;11.842;2023-02-22T16:43:02;3.28;;;0.98;;
30681;SDS011;17439;48.092;11.842;2023-02-22T16:45:31;1.60;;;0.90;;
30681;SDS011;17439;48.092;11.842;2023-02-22T16:47:58;5.50;;;0.90;;
30681;SDS011;17439;48.092;11.842;2023-02-22T16:50:25;2.50;;;0.85;;
30681;SDS011;17439;48.092;11.842;2023-02-22T16:52:52;1.05;;;0.68;;
30681;SDS011;17439;48.092;11.842;2023-02-22T16:55:21;0.98;;;0.60;;
30681;SDS011;17439;48.092;11.842;2023-02-22T16:57:48;6.60;;;0.93;;
30681;SDS011;17439;48.092;11.842;2023-02-22T17:00:20;3.50;;;1.15;;
30681;SDS011;17439;48.092;11.842;2023-02-22T17:02:48;1.45;;;0.63;;
30681;SDS011;17439;48.092;11.842;2023-02-22T17:05:15;6.97;;;1.27;;
30681;SDS011;17439;48.092;11.842;2023-02-22T17:07:42;6.78;;;1.00;;
30681;SDS011;17439;48.092;11.842;2023-02-22T17:10:15;3.25;;;0.90;;
30681;SDS011;17439;48.092;11.842;2023-02-22T17:12:43;3.80;;;0.93;;
30681;SDS011;17439;48.092;11.842;2023-02-22T17:15:33;2.10;;;0.77;;
30681;SDS011;17439;48.092;11.842;2023-02-22T17:18:00;3.30;;;0.82;;
30681;SDS011;17439;48.092;11.842;2023-02-22T17:20:29;9.05;;;0.80;;
30681;SDS011;17439;48.092;11.842;2023-02-22T17:22:57;6.28;;;1.73;;
30681;SDS011;17439;48.092;11.842;2023-02-22T17:25:29;9.85;;;1.10;;
30681;SDS011;17439;48.092;11.842;2023-02-22T17:27:58;3.28;;;1.38;;
30681;SDS011;17439;48.092;11.842;2023-02-22T17:30:25;11.05;;;3.45;;
30681;SDS011;17439;48.092;11.842;2023-02-22T17:32:52;7.95;;;3.53;;
30681;SDS011;17439;48.092;11.842;2023-02-22T17:35:20;5.50;;;2.30;;
30681;SDS011;17439;48.092;11.842;2023-02-22T17:37:47;4.68;;;1.85;;
30681;SDS011;17439;48.092;11.842;2023-02-22T17:42:42;5.78;;;1.50;;